createdAt,value
2018-05-25T00:01:59.209Z,17.30
2018-05-25T00:04:26.638Z,17.23
2018-05-25T00:06:54.149Z,17.20
2018-05-25T00:09:21.864Z,17.00
2018-05-25T00:11:49.294Z,18.90
2018-05-25T00:14:16.766Z,16.42
2018-05-25T00:16:44.206Z,17.02
2018-05-25T00:19:12.422Z,17.10
2018-05-25T00:21:39.890Z,18.48
2018-05-25T00:24:07.314Z,19.58
2018-05-25T00:26:34.931Z,19.52
2018-05-25T00:29:02.353Z,21.15
2018-05-25T00:31:29.776Z,21.90
2018-05-25T00:33:57.215Z,18.48
2018-05-25T00:36:25.403Z,19.62
2018-05-25T00:38:53.602Z,21.05
2018-05-25T00:41:21.031Z,21.02
2018-05-25T00:43:48.554Z,20.12
2018-05-25T00:46:16.022Z,22.75
2018-05-25T00:48:43.458Z,19.73
2018-05-25T00:51:11.687Z,22.05
2018-05-25T00:53:39.122Z,24.05
2018-05-25T00:56:07.347Z,20.65
2018-05-25T00:58:34.774Z,23.70
2018-05-25T01:01:03.093Z,21.17
2018-05-25T01:03:30.566Z,22.62
2018-05-25T01:05:57.992Z,22.13
2018-05-25T01:08:25.422Z,23.85
2018-05-25T01:10:52.870Z,25.60
2018-05-25T01:13:20.342Z,24.23
2018-05-25T01:15:47.814Z,24.37
2018-05-25T01:18:15.286Z,25.05
2018-05-25T01:20:42.718Z,24.85
2018-05-25T01:23:10.918Z,26.30
2018-05-25T01:25:39.116Z,25.65
2018-05-25T01:28:06.549Z,27.52
2018-05-25T01:30:33.972Z,27.55
2018-05-25T01:33:01.410Z,26.83
2018-05-25T01:35:29.606Z,27.65
2018-05-25T01:37:57.093Z,27.23
2018-05-25T01:40:24.514Z,27.27
2018-05-25T01:42:52.026Z,27.90
2018-05-25T01:45:19.502Z,28.73
2018-05-25T01:47:46.938Z,26.95
2018-05-25T01:50:15.158Z,26.80
2018-05-25T01:52:42.622Z,26.70
2018-05-25T01:55:10.053Z,29.48
2018-05-25T01:57:38.254Z,29.65
2018-05-25T02:00:06.444Z,31.85
2018-05-25T02:02:34.661Z,28.05
2018-05-25T02:05:02.078Z,29.08
2018-05-25T02:07:29.594Z,30.35
2018-05-25T02:09:57.033Z,30.20
2018-05-25T02:12:24.450Z,29.90
2018-05-25T02:14:51.915Z,32.78
2018-05-25T02:17:19.346Z,29.63
2018-05-25T02:19:47.533Z,34.95
2018-05-25T02:22:15.734Z,27.67
2018-05-25T02:24:43.159Z,29.15
2018-05-25T02:27:10.695Z,32.63
2018-05-25T02:29:38.158Z,31.60
2018-05-25T02:32:05.594Z,32.03
2018-05-25T02:34:33.815Z,29.98
2018-05-25T02:37:01.286Z,28.42
2018-05-25T02:39:28.756Z,33.42
2018-05-25T02:41:56.937Z,30.92
2018-05-25T02:44:24.418Z,29.48
2018-05-25T02:46:51.854Z,29.23
2018-05-25T02:49:20.071Z,29.77
2018-05-25T02:51:47.530Z,28.10
2018-05-25T02:54:15.694Z,30.88
2018-05-25T02:56:43.893Z,28.98
2018-05-25T02:59:12.079Z,31.87
2018-05-25T03:01:40.390Z,29.95
2018-05-25T03:04:07.814Z,31.67
2018-05-25T03:06:35.246Z,33.22
2018-05-25T03:09:02.672Z,31.23
2018-05-25T03:11:30.886Z,28.05
2018-05-25T03:13:58.311Z,30.12
2018-05-25T03:16:26.505Z,31.20
2018-05-25T03:18:54.730Z,35.17
2018-05-25T03:21:22.195Z,30.42
2018-05-25T03:23:49.663Z,31.98
2018-05-25T03:26:17.143Z,32.00
2018-05-25T03:28:44.606Z,30.15
2018-05-25T03:31:12.031Z,33.60
2018-05-25T03:33:39.547Z,31.35
2018-05-25T03:36:06.971Z,29.58
2018-05-25T03:38:34.406Z,30.27
2018-05-25T03:41:01.952Z,35.28
2018-05-25T03:43:30.136Z,33.10
2018-05-25T03:45:57.738Z,33.25
2018-05-25T03:48:25.175Z,29.05
2018-05-25T03:50:52.650Z,30.50
2018-05-25T03:53:20.126Z,31.33
2018-05-25T03:55:47.549Z,30.00
2018-05-25T03:58:14.982Z,29.63
2018-05-25T04:00:54.510Z,31.20
2018-05-25T04:03:21.946Z,34.42
2018-05-25T04:05:49.375Z,36.40
2018-05-25T04:08:16.827Z,35.10
2018-05-25T04:10:44.258Z,36.95
2018-05-25T04:13:12.483Z,40.42
2018-05-25T04:15:39.955Z,37.47
2018-05-25T04:18:07.405Z,36.75
2018-05-25T04:20:34.826Z,38.17
2018-05-25T04:23:02.258Z,45.17
2018-05-25T04:25:29.726Z,42.30
2018-05-25T04:27:57.163Z,42.67
2018-05-25T04:30:25.357Z,42.03
2018-05-25T04:32:53.575Z,46.47
2018-05-25T04:35:21.042Z,48.22
2018-05-25T04:37:48.510Z,48.95
2018-05-25T04:40:15.984Z,53.45
2018-05-25T04:42:43.415Z,51.25
2018-05-25T04:45:11.607Z,52.72
2018-05-25T04:47:39.826Z,52.78
2018-05-25T04:50:07.295Z,56.95
2018-05-25T04:52:34.762Z,58.03
2018-05-25T04:55:02.186Z,61.67
2018-05-25T04:57:29.622Z,64.12
2018-05-25T04:59:57.070Z,50.72
2018-05-25T05:02:24.534Z,33.40
2018-05-25T05:04:52.044Z,42.17
2018-05-25T05:07:19.443Z,49.55
2018-05-25T05:09:47.638Z,57.95
2018-05-25T05:12:15.836Z,48.85
2018-05-25T05:14:44.033Z,49.97
2018-05-25T05:17:11.464Z,45.42
2018-05-25T05:19:38.890Z,47.03
2018-05-25T05:22:06.347Z,44.20
2018-05-25T05:24:33.818Z,44.45
2018-05-25T05:27:01.286Z,50.95
2018-05-25T05:29:28.757Z,43.63
2018-05-25T05:31:56.194Z,44.10
2018-05-25T05:34:24.422Z,41.72
2018-05-25T05:36:51.850Z,45.53
2018-05-25T05:39:20.047Z,42.05
2018-05-25T05:41:48.263Z,44.40
2018-05-25T05:44:15.698Z,37.67
2018-05-25T05:46:43.889Z,43.03
2018-05-25T05:49:11.345Z,41.22
2018-05-25T05:51:38.774Z,38.08
2018-05-25T05:54:06.269Z,38.85
2018-05-25T05:56:33.698Z,39.47
2018-05-25T05:59:01.126Z,40.03
2018-05-25T06:01:29.318Z,41.50
2018-05-25T06:03:57.538Z,38.08
2018-05-25T06:06:24.963Z,39.35
2018-05-25T06:08:52.478Z,35.72
2018-05-25T06:11:19.947Z,46.05
2018-05-25T06:13:47.422Z,37.03
2018-05-25T06:16:14.854Z,40.05
2018-05-25T06:18:43.059Z,37.22
2018-05-25T06:21:11.251Z,38.25
2018-05-25T06:23:38.738Z,37.17
2018-05-25T06:26:06.242Z,39.33
2018-05-25T06:28:33.774Z,41.75
2018-05-25T06:31:01.203Z,35.65
2018-05-25T06:33:28.622Z,35.47
2018-05-25T06:35:56.055Z,35.17
2018-05-25T06:38:24.258Z,34.58
2018-05-25T06:40:51.674Z,34.92
2018-05-25T06:43:19.110Z,33.90
2018-05-25T06:45:46.534Z,34.15
2018-05-25T06:48:13.971Z,35.38
2018-05-25T06:50:41.460Z,35.38
2018-05-25T06:53:08.885Z,33.13
2018-05-25T06:55:36.318Z,36.78
2018-05-25T06:58:04.526Z,32.70
2018-05-25T07:00:31.958Z,33.42
2018-05-25T07:02:59.390Z,37.53
2018-05-25T07:05:26.855Z,38.45
2018-05-25T07:07:54.418Z,33.05
2018-05-25T07:10:21.849Z,32.67
2018-05-25T07:12:49.359Z,41.70
2018-05-25T07:15:17.526Z,41.37
2018-05-25T07:17:45.833Z,44.40
2018-05-25T07:20:13.258Z,46.45
2018-05-25T07:22:40.697Z,41.60
2018-05-25T07:25:08.164Z,40.35
2018-05-25T07:27:35.626Z,44.50
2018-05-25T07:30:03.181Z,44.17
2018-05-25T07:32:31.363Z,41.45
2018-05-25T07:34:58.797Z,41.50
2018-05-25T07:37:26.310Z,42.75
2018-05-25T07:39:53.742Z,43.90
2018-05-25T07:42:21.973Z,43.78
2018-05-25T07:44:49.428Z,45.22
2018-05-25T07:47:16.850Z,47.85
2018-05-25T07:49:45.050Z,44.22
2018-05-25T07:52:12.474Z,45.25
2018-05-25T07:54:39.912Z,42.50
2018-05-25T07:57:08.103Z,45.75
2018-05-25T07:59:35.602Z,44.85
2018-05-25T08:02:03.056Z,47.78
2018-05-25T08:04:30.475Z,40.75
2018-05-25T08:06:58.723Z,44.00
2018-05-25T08:09:26.154Z,41.90
2018-05-25T08:11:54.387Z,38.78
2018-05-25T08:14:21.838Z,36.38
2018-05-25T08:16:50.132Z,39.20
2018-05-25T08:19:17.603Z,41.08
2018-05-25T08:21:45.121Z,41.85
2018-05-25T08:24:12.614Z,33.58
2018-05-25T08:26:40.811Z,34.58
2018-05-25T08:29:09.003Z,34.65
2018-05-25T08:31:36.429Z,34.38
2018-05-25T08:34:03.959Z,32.58
2018-05-25T08:36:31.426Z,31.92
2018-05-25T08:38:58.894Z,33.38
2018-05-25T08:41:26.466Z,33.95
2018-05-25T08:43:54.657Z,29.83
2018-05-25T08:46:22.090Z,35.08
2018-05-25T08:48:50.314Z,33.15
2018-05-25T08:51:17.782Z,34.17
2018-05-25T08:53:45.217Z,33.67
2018-05-25T08:56:12.725Z,29.60
2018-05-25T08:58:40.198Z,31.80
2018-05-25T09:01:07.662Z,28.90
2018-05-25T09:03:35.138Z,30.67
2018-05-25T09:06:02.603Z,33.83
2018-05-25T09:08:30.039Z,31.95
2018-05-25T09:10:58.258Z,30.10
2018-05-25T09:13:25.695Z,27.62
2018-05-25T09:15:53.886Z,30.48
2018-05-25T09:18:22.090Z,25.20
2018-05-25T09:20:49.574Z,28.17
2018-05-25T09:23:17.043Z,30.50
2018-05-25T09:25:44.517Z,29.33
2018-05-25T09:28:12.009Z,27.77
2018-05-25T09:30:39.475Z,26.90
2018-05-25T09:33:06.933Z,29.75
2018-05-25T09:35:34.358Z,25.98
2018-05-25T09:38:02.563Z,94.65
2018-05-25T09:40:29.983Z,37.72
2018-05-25T09:42:57.522Z,39.25
2018-05-25T09:45:24.985Z,29.63
2018-05-25T09:47:52.458Z,167.35
2018-05-25T09:50:19.927Z,28.90
2018-05-25T09:52:47.394Z,30.88
2018-05-25T09:55:14.871Z,27.27
2018-05-25T09:57:57.183Z,26.15
2018-05-25T10:00:25.440Z,23.85
2018-05-25T10:02:52.949Z,21.17
2018-05-25T10:05:20.387Z,22.40
2018-05-25T10:07:48.581Z,27.45
2018-05-25T10:10:16.777Z,25.67
2018-05-25T10:12:44.262Z,20.08
2018-05-25T10:15:11.734Z,21.40
2018-05-25T10:17:39.202Z,20.75
2018-05-25T10:20:06.642Z,19.23
2018-05-25T10:22:34.858Z,20.62
2018-05-25T10:25:02.319Z,18.50
2018-05-25T10:27:29.798Z,20.83
2018-05-25T10:29:57.263Z,21.33
2018-05-25T10:32:24.737Z,21.45
2018-05-25T10:34:52.170Z,16.87
2018-05-25T10:37:20.396Z,19.20
2018-05-25T10:39:47.866Z,19.62
2018-05-25T10:42:15.290Z,17.90
2018-05-25T10:44:42.726Z,20.52
2018-05-25T10:47:10.145Z,17.20
2018-05-25T10:49:38.359Z,18.33
2018-05-25T10:52:05.778Z,20.05
2018-05-25T10:54:33.214Z,17.17
2018-05-25T10:57:00.642Z,17.50
2018-05-25T10:59:28.855Z,17.90
2018-05-25T11:01:56.278Z,16.33
2018-05-25T11:04:23.706Z,15.88
2018-05-25T11:06:51.161Z,15.77
2018-05-25T11:09:18.595Z,17.50
2018-05-25T11:11:46.793Z,18.65
2018-05-25T11:14:15.002Z,18.08
2018-05-25T11:16:42.477Z,16.45
2018-05-25T11:19:09.942Z,15.43
2018-05-25T11:21:37.371Z,15.82
2018-05-25T11:24:05.599Z,15.00
2018-05-25T11:26:33.066Z,13.93
2018-05-25T11:29:00.498Z,15.05
2018-05-25T11:31:27.921Z,15.80
2018-05-25T11:33:55.587Z,14.38
2018-05-25T11:36:23.050Z,15.52
2018-05-25T11:38:50.518Z,13.75
2018-05-25T11:41:18.299Z,15.65
2018-05-25T11:43:45.763Z,17.48
2018-05-25T11:46:13.182Z,13.77
2018-05-25T11:48:40.622Z,13.85
2018-05-25T11:51:08.046Z,11.82
2018-05-25T11:53:36.415Z,11.93
2018-05-25T11:56:04.599Z,10.52
2018-05-25T11:58:32.126Z,11.90
2018-05-25T12:00:59.546Z,11.45
2018-05-25T12:03:26.962Z,10.02
2018-05-25T12:05:54.394Z,10.48
2018-05-25T12:08:22.578Z,10.98
2018-05-25T12:10:50.783Z,10.25
2018-05-25T12:13:18.966Z,9.43
2018-05-25T12:15:47.279Z,10.45
2018-05-25T12:18:14.707Z,11.32
2018-05-25T12:20:42.129Z,10.73
2018-05-25T12:23:09.554Z,11.02
2018-05-25T12:25:37.751Z,10.38
2018-05-25T12:28:06.014Z,9.40
2018-05-25T12:30:33.430Z,10.80
2018-05-25T12:33:00.846Z,9.18
2018-05-25T12:35:28.371Z,9.73
2018-05-25T12:37:55.837Z,9.85
2018-05-25T12:40:23.263Z,14.55
2018-05-25T12:42:50.797Z,9.88
2018-05-25T12:45:18.226Z,10.10
2018-05-25T12:47:46.442Z,8.98
2018-05-25T12:50:13.911Z,7.53
2018-05-25T12:52:41.386Z,7.65
2018-05-25T12:55:08.810Z,7.32
2018-05-25T12:57:37.000Z,6.32
2018-05-25T13:00:04.418Z,6.93
2018-05-25T13:02:31.867Z,6.12
2018-05-25T13:04:59.338Z,6.07
2018-05-25T13:07:26.754Z,6.62
2018-05-25T13:09:54.186Z,6.68
2018-05-25T13:12:21.650Z,6.80
2018-05-25T13:14:49.081Z,8.68
2018-05-25T13:17:16.589Z,7.35
2018-05-25T13:19:44.031Z,9.77
2018-05-25T13:22:12.206Z,7.00
2018-05-25T13:24:39.630Z,7.75
2018-05-25T13:27:07.087Z,6.68
2018-05-25T13:29:34.740Z,6.32
2018-05-25T13:32:02.238Z,6.35
2018-05-25T13:34:29.694Z,6.05
2018-05-25T13:36:57.163Z,6.03
2018-05-25T13:39:24.595Z,6.25
2018-05-25T13:41:52.021Z,5.82
2018-05-25T13:44:19.474Z,5.30
2018-05-25T13:46:46.890Z,6.45
2018-05-25T13:49:14.361Z,5.40
2018-05-25T13:51:41.738Z,5.75
2018-05-25T13:54:09.255Z,5.47
2018-05-25T13:56:36.670Z,5.22
2018-05-25T13:59:04.100Z,5.80
2018-05-25T14:01:31.517Z,5.65
2018-05-25T14:03:59.030Z,5.00
2018-05-25T14:06:26.495Z,4.53
2018-05-25T14:08:53.966Z,3.90
2018-05-25T14:11:21.425Z,4.37
2018-05-25T14:13:48.818Z,4.25
2018-05-25T14:16:16.275Z,6.15
2018-05-25T14:18:43.746Z,6.53
2018-05-25T14:21:11.214Z,5.87
2018-05-25T14:23:38.636Z,4.93
2018-05-25T14:26:07.567Z,4.97
2018-05-25T14:28:35.882Z,3.42
2018-05-25T14:31:03.306Z,3.22
2018-05-25T14:33:30.726Z,5.60
2018-05-25T14:35:58.186Z,4.45
2018-05-25T14:38:25.650Z,4.68
2018-05-25T14:40:53.073Z,4.57
2018-05-25T14:43:20.599Z,4.45
2018-05-25T14:45:48.066Z,3.72
2018-05-25T14:48:15.534Z,4.37
2018-05-25T14:50:43.003Z,4.32
2018-05-25T14:53:10.426Z,4.20
2018-05-25T14:55:37.854Z,4.43
2018-05-25T14:58:05.413Z,4.30
2018-05-25T15:00:32.886Z,3.85
2018-05-25T15:03:00.301Z,4.43
2018-05-25T15:05:27.810Z,4.40
2018-05-25T15:07:55.226Z,4.30
2018-05-25T15:10:22.759Z,4.80
2018-05-25T15:12:50.238Z,4.20
2018-05-25T15:15:17.662Z,6.12
2018-05-25T15:17:45.087Z,3.97
2018-05-25T15:20:12.545Z,4.50
2018-05-25T15:22:39.962Z,5.20
2018-05-25T15:25:07.386Z,5.43
2018-05-25T15:27:34.809Z,5.20
2018-05-25T15:30:03.031Z,5.05
2018-05-25T15:32:30.516Z,4.80
2018-05-25T15:34:57.975Z,4.90
2018-05-25T15:37:25.446Z,5.32
2018-05-25T15:39:52.915Z,5.20
2018-05-25T15:42:20.383Z,4.95
2018-05-25T15:44:47.956Z,4.53
2018-05-25T15:47:15.426Z,4.78
2018-05-25T15:49:42.855Z,4.97
2018-05-25T15:52:10.270Z,4.45
2018-05-25T15:54:37.734Z,4.20
2018-05-25T15:57:05.155Z,5.18
2018-05-25T15:59:32.673Z,5.00
2018-05-25T16:02:00.182Z,5.28
2018-05-25T16:04:27.622Z,5.80
2018-05-25T16:06:55.082Z,5.40
2018-05-25T16:09:22.730Z,5.82
2018-05-25T16:11:50.946Z,6.50
2018-05-25T16:14:19.172Z,6.03
2018-05-25T16:16:46.570Z,7.85
2018-05-25T16:19:14.787Z,6.30
2018-05-25T16:21:42.226Z,5.30
2018-05-25T16:24:10.410Z,6.45
2018-05-25T16:26:38.632Z,6.60
2018-05-25T16:29:06.106Z,6.28
2018-05-25T16:31:33.572Z,6.32
2018-05-25T16:34:01.046Z,6.97
2018-05-25T16:36:28.510Z,6.10
2018-05-25T16:38:55.954Z,6.28
2018-05-25T16:41:24.142Z,7.12
2018-05-25T16:43:52.328Z,6.32
2018-05-25T16:46:20.523Z,6.70
2018-05-25T16:48:48.730Z,6.57
2018-05-25T16:51:16.211Z,6.43
2018-05-25T16:53:43.627Z,8.38
2018-05-25T16:56:11.050Z,5.62
2018-05-25T16:58:38.466Z,6.37
2018-05-25T17:01:05.983Z,6.03
2018-05-25T17:03:33.469Z,6.45
2018-05-25T17:06:00.921Z,6.12
2018-05-25T17:08:28.334Z,6.12
2018-05-25T17:10:55.879Z,6.25
2018-05-25T17:13:23.322Z,5.30
2018-05-25T17:15:50.751Z,6.15
2018-05-25T17:18:18.266Z,5.95
2018-05-25T17:20:45.690Z,6.03
2018-05-25T17:23:13.167Z,5.95
2018-05-25T17:25:40.594Z,5.80
2018-05-25T17:28:08.017Z,5.72
2018-05-25T17:30:36.213Z,6.75
2018-05-25T17:33:04.399Z,6.20
2018-05-25T17:35:32.602Z,5.80
2018-05-25T17:38:00.071Z,6.57
2018-05-25T17:40:27.550Z,5.37
2018-05-25T17:42:55.011Z,8.60
2018-05-25T17:45:22.438Z,6.55
2018-05-25T17:47:49.954Z,6.25
2018-05-25T17:50:17.418Z,6.22
2018-05-25T17:52:44.901Z,6.03
2018-05-25T17:55:12.373Z,11.18
2018-05-25T17:57:39.782Z,5.75
2018-05-25T18:00:07.207Z,7.80
2018-05-25T18:02:34.631Z,7.25
2018-05-25T18:05:02.062Z,7.22
2018-05-25T18:07:29.500Z,5.85
2018-05-25T18:09:57.662Z,8.50
2018-05-25T18:12:25.882Z,6.30
2018-05-25T18:14:53.358Z,6.05
2018-05-25T18:17:20.869Z,6.00
2018-05-25T18:19:48.242Z,8.05
2018-05-25T18:22:15.762Z,5.72
2018-05-25T18:24:43.330Z,10.90
2018-05-25T18:27:10.864Z,5.47
2018-05-25T18:29:38.274Z,7.28
2018-05-25T18:32:05.747Z,9.55
2018-05-25T18:34:33.215Z,6.57
2018-05-25T18:37:00.682Z,12.07
2018-05-25T18:39:28.163Z,8.65
2018-05-25T18:41:55.622Z,5.43
2018-05-25T18:44:23.098Z,7.55
2018-05-25T18:46:50.539Z,6.15
2018-05-25T18:49:18.754Z,6.60
2018-05-25T18:51:46.204Z,6.75
2018-05-25T18:54:26.286Z,5.25
2018-05-25T18:56:53.758Z,5.12
2018-05-25T18:59:21.180Z,5.82
2018-05-25T19:01:48.695Z,5.70
2018-05-25T19:04:16.110Z,5.97
2018-05-25T19:06:43.639Z,6.05
2018-05-25T19:09:11.122Z,7.62
2018-05-25T19:11:38.582Z,5.90
2018-05-25T19:14:06.055Z,6.60
2018-05-25T19:16:33.487Z,6.45
2018-05-25T19:19:00.906Z,5.55
2018-05-25T19:21:28.330Z,6.62
2018-05-25T19:23:56.518Z,6.37
2018-05-25T19:26:24.755Z,6.50
2018-05-25T19:28:52.915Z,5.82
2018-05-25T19:31:20.342Z,6.25
2018-05-25T19:33:47.765Z,5.50
2018-05-25T19:36:15.187Z,7.15
2018-05-25T19:38:43.432Z,5.90
2018-05-25T19:41:10.882Z,9.90
2018-05-25T19:43:38.302Z,6.07
2018-05-25T19:46:05.726Z,6.40
2018-05-25T19:48:33.194Z,6.30
2018-05-25T19:51:00.618Z,5.97
2018-05-25T19:53:28.134Z,5.93
2018-05-25T19:55:55.591Z,6.20
2018-05-25T19:58:23.011Z,5.53
2018-05-25T20:00:50.434Z,5.22
2018-05-25T20:03:17.854Z,5.45
2018-05-25T20:05:45.297Z,5.80
2018-05-25T20:08:12.747Z,6.22
2018-05-25T20:10:40.170Z,6.50
2018-05-25T20:13:07.590Z,5.60
2018-05-25T20:15:35.014Z,6.37
2018-05-25T20:18:03.233Z,6.80
2018-05-25T20:20:31.419Z,6.57
2018-05-25T20:22:58.841Z,6.70
2018-05-25T20:25:26.258Z,5.72
2018-05-25T20:27:53.687Z,5.93
2018-05-25T20:30:21.878Z,5.82
2018-05-25T20:32:49.306Z,5.43
2018-05-25T20:35:16.752Z,6.78
2018-05-25T20:37:44.222Z,5.72
2018-05-25T20:40:11.638Z,9.25
2018-05-25T20:42:39.066Z,6.00
2018-05-25T20:45:06.743Z,6.78
2018-05-25T20:47:34.167Z,6.62
2018-05-25T20:50:02.408Z,6.53
2018-05-25T20:52:29.867Z,6.12
2018-05-25T20:54:57.330Z,5.45
2018-05-25T20:57:24.757Z,6.32
2018-05-25T20:59:52.279Z,8.15
2018-05-25T21:02:19.744Z,6.12
2018-05-25T21:04:47.214Z,5.45
2018-05-25T21:07:14.687Z,6.00
2018-05-25T21:09:42.166Z,6.10
2018-05-25T21:12:09.594Z,5.45
2018-05-25T21:14:37.806Z,5.65
2018-05-25T21:17:05.230Z,4.82
2018-05-25T21:19:32.747Z,5.22
2018-05-25T21:22:00.218Z,4.95
2018-05-25T21:24:27.699Z,10.23
2018-05-25T21:26:55.159Z,5.25
2018-05-25T21:29:22.591Z,5.47
2018-05-25T21:31:50.787Z,5.80
2018-05-25T21:34:18.999Z,7.62
2018-05-25T21:36:46.427Z,5.45
2018-05-25T21:39:13.846Z,6.12
2018-05-25T21:41:41.274Z,6.18
2018-05-25T21:44:09.495Z,5.60
2018-05-25T21:46:36.921Z,7.40
2018-05-25T21:49:05.114Z,7.35
2018-05-25T21:51:32.537Z,6.60
2018-05-25T21:54:00.001Z,8.80
2018-05-25T21:56:27.458Z,7.57
2018-05-25T21:58:54.873Z,6.70
2018-05-25T22:01:22.301Z,6.18
2018-05-25T22:03:49.714Z,6.03
2018-05-25T22:06:17.150Z,6.40
2018-05-25T22:08:44.570Z,6.62
2018-05-25T22:11:12.766Z,8.07
2018-05-25T22:13:40.951Z,6.50
2018-05-25T22:16:09.169Z,6.28
2018-05-25T22:18:36.841Z,6.93
2018-05-25T22:21:04.307Z,7.45
2018-05-25T22:23:31.778Z,6.50
2018-05-25T22:25:59.251Z,6.28
2018-05-25T22:28:26.674Z,6.60
2018-05-25T22:30:54.090Z,7.10
2018-05-25T22:33:21.600Z,6.37
2018-05-25T22:35:48.986Z,7.40
2018-05-25T22:38:16.419Z,6.30
2018-05-25T22:40:43.971Z,6.70
2018-05-25T22:43:23.271Z,6.55
2018-05-25T22:46:02.778Z,7.90
2018-05-25T22:48:42.207Z,7.53
2018-05-25T22:51:21.675Z,7.15
2018-05-25T22:53:54.238Z,7.35
2018-05-25T22:56:22.450Z,7.47
2018-05-25T22:58:49.918Z,7.28
2018-05-25T23:01:17.338Z,7.03
2018-05-25T23:03:44.858Z,6.57
2018-05-25T23:06:12.327Z,7.03
2018-05-25T23:08:39.803Z,7.03
2018-05-25T23:11:07.267Z,7.30
2018-05-25T23:13:34.694Z,7.87
2018-05-25T23:16:02.207Z,7.10
2018-05-25T23:18:29.652Z,7.07
2018-05-25T23:20:57.052Z,8.60
2018-05-25T23:23:24.482Z,9.80
2018-05-25T23:25:52.702Z,7.40
2018-05-25T23:28:20.131Z,7.65
2018-05-25T23:30:47.554Z,10.75
2018-05-25T23:33:14.978Z,7.25
2018-05-25T23:35:43.199Z,7.05
2018-05-25T23:38:10.631Z,7.25
2018-05-25T23:40:38.818Z,8.30
2018-05-25T23:43:07.042Z,7.68
2018-05-25T23:45:34.464Z,9.18
2018-05-25T23:48:01.981Z,8.95
2018-05-25T23:50:30.168Z,8.00
2018-05-25T23:52:57.634Z,7.78
2018-05-25T23:55:25.053Z,9.48
2018-05-25T23:57:52.582Z,7.72
